This is the latest recevied weather packets stored in our database for station/object KN4CCE-13. If no packets are shown the sender has not sent any weather packets the latest 10 day(s).
| Time | Temp. | Humidity | Pressure | Rain* | Wind** | Luminosity | Snow |
|---|---|---|---|---|---|---|---|
| 1777660205 | 16.67° C | 56% | 1014.6 hPa | 0 mm | - | 388 W/m² | - |
| 1777659306 | 16.67° C | 54% | 1015 hPa | 0 mm | - | 343 W/m² | - |
| 1777655707 | 17.22° C | 55% | 1015.4 hPa | 0 mm | - | 550 W/m² | - |
| 1777654806 | 16.11° C | 55% | 1015.4 hPa | 0 mm | - | 1134 W/m² | - |
| 1777648506 | 13.89° C | 58% | 1016.4 hPa | 0 mm | - | 195 W/m² | - |
| 1777638622 | 11.11° C | 65% | 1016.2 hPa | 0 mm | - | 35 W/m² | - |
| 1777632320 | 10.56° C | 72% | 1015.3 hPa | 0 mm | - | 12 W/m² | - |
| 1777631427 | 10.56° C | 71% | 1015.4 hPa | 0 mm | - | 0 W/m² | - |
| 1777627818 | 10° C | 74% | 1015.1 hPa | 0 mm | - | 0 W/m² | - |
| 1777626039 | 9.44° C | 75% | 1015.1 hPa | 0 mm | - | 0 W/m² | - |
| 1777624216 | 10° C | 74% | 1015.2 hPa | 0 mm | - | 0 W/m² | - |
| 1777617929 | 12.22° C | 62% | 1014.2 hPa | 0 mm | - | 0 W/m² | - |
| 1777608022 | 15° C | 56% | 1013.1 hPa | 0 mm | - | 0 W/m² | - |
| 1777606224 | 15° C | 58% | 1013 hPa | 0 mm | - | 0 W/m² | - |
| 1777604427 | 14.44° C | 60% | 1013 hPa | 0 mm | - | 0 W/m² | - |
| 1777595406 | 16.11° C | 74% | 1010.4 hPa | 0 mm | - | 0 W/m² | - |
| 1777594505 | 16.67° C | 73% | 1010.3 hPa | 0 mm | - | 0 W/m² | - |
| 1777589105 | 20° C | 63% | 1009.2 hPa | 0 mm | - | 47 W/m² | - |
| 1777586417 | 20.56° C | 59% | 1009 hPa | 0 mm | - | 62 W/m² | - |
| 1777578311 | 21.11° C | 60% | 1009.6 hPa | 0 mm | - | 243 W/m² | - |
| 1777576525 | 20.56° C | 66% | 1009.6 hPa | 0 mm | - | 218 W/m² | - |
| 1777573814 | 20.56° C | 59% | 1009.5 hPa | 0 mm | - | 1021 W/m² | - |
| 1777570217 | 19.44° C | 65% | 1009.8 hPa | 0 mm | - | 1107 W/m² | - |
| 1777565722 | 16.67° C | 87% | 1010.6 hPa | 0 mm | - | 547 W/m² | - |
| 1777557616 | 15° C | 97% | 1010.7 hPa | 0 mm | - | 163 W/m² | - |
* Rain latest hour (hover to see other rain measurements)
** Current wind speed in m/s (hover to see current wind gust speed)